Time;durP1;ratioP1;P1;durP2;ratioP2;P2;SDS_P1;SDS_P2;PMS_P1;PMS_P2;Temp;Humidity;BMP_temperature;BMP_pressure;BME280_temperature;BME280_humidity;BME280_pressure;Samples;Min_cycle;Max_cycle;Signal;HPM_P1;HPM_P2
2022/03/26 00:01:48;;;;;;;39.90;17.00;;;;;;;3.18;69.29;101439.03;1420022;91;22146;-83
2022/03/26 00:04:14;;;;;;;39.10;19.10;;;;;;;3.16;69.58;101437.79;1417487;90;23626;-84
2022/03/26 00:06:40;;;;;;;38.80;19.40;;;;;;;3.15;69.16;101444.80;1407363;92;21636;-84
2022/03/26 00:09:06;;;;;;;34.47;18.57;;;;;;;3.16;69.51;101442.59;1412841;93;21466;-82
2022/03/26 00:11:32;;;;;;;46.33;17.33;;;;;;;3.23;68.97;101444.89;1414676;91;21437;-83
2022/03/26 00:13:58;;;;;;;33.80;18.40;;;;;;;3.26;69.45;101446.05;1418525;91;21360;-83
2022/03/26 00:16:24;;;;;;;39.63;20.00;;;;;;;3.28;69.00;101445.05;1426653;91;21445;-81
2022/03/26 00:18:50;;;;;;;44.87;18.83;;;;;;;3.28;68.80;101446.36;1419080;91;21496;-83
2022/03/26 00:21:15;;;;;;;41.53;19.73;;;;;;;3.28;69.43;101446.36;1427914;91;21861;-84
2022/03/26 00:23:42;;;;;;;41.00;21.00;;;;;;;3.24;69.97;101441.34;1435431;91;21411;-82
2022/03/26 00:26:11;;;;;;;39.13;20.70;;;;;;;3.20;69.49;101441.13;1428127;90;22566;-82
2022/03/26 00:28:37;;;;;;;37.48;20.30;;;;;;;3.15;69.71;101440.87;1410500;91;22752;-83
2022/03/26 00:31:05;;;;;;;41.73;21.03;;;;;;;3.11;69.84;101438.03;1401759;92;21431;-82
2022/03/26 00:33:32;;;;;;;41.23;21.80;;;;;;;3.08;69.12;101432.08;1401958;92;21394;-83
2022/03/26 00:35:59;;;;;;;46.97;21.67;;;;;;;3.05;68.60;101434.41;1371405;93;21362;-83
2022/03/26 00:38:25;;;;;;;45.58;22.02;;;;;;;3.03;68.95;101436.24;1377404;95;21783;-83
2022/03/26 00:40:51;;;;;;;46.67;22.90;;;;;;;2.99;69.64;101432.06;1374888;94;21436;-83
2022/03/26 00:43:17;;;;;;;49.50;23.45;;;;;;;2.95;70.18;101427.92;1374859;95;21427;-83
2022/03/26 00:45:43;;;;;;;41.80;23.07;;;;;;;2.96;69.60;101426.14;1375425;94;22197;-83
2022/03/26 00:48:09;;;;;;;45.87;23.67;;;;;;;2.95;70.26;101427.92;1356688;95;22190;-83
2022/03/26 00:50:35;;;;;;;40.30;21.48;;;;;;;2.95;69.77;101422.69;1354080;95;21372;-83
2022/03/26 00:53:01;;;;;;;49.07;21.60;;;;;;;2.96;69.18;101421.75;1364046;95;22319;-83
2022/03/26 00:55:27;;;;;;;41.30;23.23;;;;;;;2.97;69.50;101423.47;1369123;95;22296;-83
2022/03/26 00:57:53;;;;;;;51.27;22.20;;;;;;;2.95;70.13;101427.92;1405010;93;21459;-83
2022/03/26 01:00:20;;;;;;;48.07;23.03;;;;;;;2.92;70.18;101429.38;1402793;92;22128;-84
2022/03/26 01:02:48;;;;;;;45.67;22.77;;;;;;;2.88;70.17;101421.31;1411052;93;21939;-83
2022/03/26 01:05:13;;;;;;;48.53;22.27;;;;;;;2.83;69.93;101424.13;1409875;93;21659;-83
2022/03/26 01:07:39;;;;;;;44.33;24.33;;;;;;;2.79;70.89;101424.34;1403168;92;21995;-83
2022/03/26 01:10:09;;;;;;;51.63;23.93;;;;;;;2.74;71.02;101418.04;1402174;91;21379;-83
2022/03/26 01:12:35;;;;;;;45.52;22.87;;;;;;;2.68;70.06;101419.17;1402080;93;21440;-82
2022/03/26 01:15:02;;;;;;;49.75;23.92;;;;;;;2.68;69.86;101419.64;1405335;93;21401;-83
2022/03/26 01:17:28;;;;;;;48.90;23.62;;;;;;;2.67;69.99;101420.08;1389673;92;21398;-84
2022/03/26 01:19:54;;;;;;;43.07;23.80;;;;;;;2.65;69.86;101416.70;1395316;93;22414;-84
2022/03/26 01:22:21;;;;;;;50.83;26.50;;;;;;;2.66;69.94;101415.78;1404243;92;22243;-83
2022/03/26 01:24:46;;;;;;;45.40;23.75;;;;;;;2.67;69.79;101416.62;1406150;93;22902;-83
2022/03/26 01:27:12;;;;;;;48.97;24.47;;;;;;;2.65;69.70;101415.41;1389755;94;21376;-83
2022/03/26 01:29:40;;;;;;;50.77;25.37;;;;;;;2.62;70.03;101420.77;1400533;91;21475;-84
2022/03/26 01:32:08;;;;;;;49.95;23.85;;;;;;;2.59;70.75;101431.38;1409852;92;21459;-83
2022/03/26 01:34:35;;;;;;;56.00;24.50;;;;;;;2.55;70.27;101429.81;1427489;91;23429;-83
2022/03/26 01:37:03;;;;;;;47.33;23.02;;;;;;;2.51;70.00;101430.88;1409779;91;21388;-82
2022/03/26 01:39:30;;;;;;;51.65;23.85;;;;;;;2.49;69.93;101432.71;1420037;91;21388;-81
2022/03/26 01:42:07;;;;;;;57.25;27.48;;;;;;;2.44;69.37;101429.45;1438546;91;21470;-82
2022/03/26 01:44:34;;;;;;;58.45;27.93;;;;;;;2.42;69.55;101428.70;1430467;91;21353;-82
2022/03/26 01:47:00;;;;;;;55.33;25.55;;;;;;;2.43;69.72;101428.61;1404958;91;23399;-82
2022/03/26 01:49:27;;;;;;;58.87;26.40;;;;;;;2.44;69.84;101428.99;1417253;91;21458;-82
2022/03/26 01:51:54;;;;;;;60.85;25.68;;;;;;;2.43;69.84;101427.77;1414389;91;21403;-82
2022/03/26 01:54:22;;;;;;;54.50;26.55;;;;;;;2.43;69.67;101422.55;1412453;91;21418;-83
2022/03/26 01:56:49;;;;;;;61.28;27.35;;;;;;;2.41;69.33;101433.52;1420994;91;22356;-82
2022/03/26 01:59:15;;;;;;;71.80;32.25;;;;;;;2.37;71.59;101430.67;1432574;91;22453;-82
2022/03/26 02:01:42;;;;;;;65.90;30.57;;;;;;;2.38;70.65;101430.58;1439195;89;23509;-82
2022/03/26 02:04:09;;;;;;;67.62;30.08;;;;;;;2.39;70.88;101426.23;1421852;89;21385;-82
2022/03/26 02:06:39;;;;;;;63.05;29.92;;;;;;;2.38;70.47;101425.36;1418589;91;21351;-83
2022/03/26 02:09:09;;;;;;;67.03;29.98;;;;;;;2.38;70.04;101424.05;1428379;91;21336;-82
2022/03/26 02:11:39;;;;;;;66.53;31.62;;;;;;;2.39;70.20;101428.38;1432045;91;21366;-82
2022/03/26 02:14:08;;;;;;;59.55;27.85;;;;;;;2.41;70.44;101426.98;1412993;91;21417;-82
2022/03/26 02:16:36;;;;;;;66.22;29.55;;;;;;;2.45;70.11;101425.95;1415334;91;21499;-81
2022/03/26 02:19:05;;;;;;;61.90;28.67;;;;;;;2.47;69.44;101428.00;1436322;91;21521;-82
2022/03/26 02:21:34;;;;;;;67.53;31.90;;;;;;;2.52;69.05;101424.73;1416237;91;21373;-82
2022/03/26 02:24:02;;;;;;;64.27;31.57;;;;;;;2.53;68.73;101424.27;1416344;91;21446;-82
2022/03/26 02:26:28;;;;;;;59.45;30.77;;;;;;;2.52;68.71;101421.27;1441770;91;22292;-82
2022/03/26 02:28:57;;;;;;;59.60;29.25;;;;;;;2.51;68.31;101420.89;1432971;91;22357;-83
2022/03/26 02:31:27;;;;;;;66.22;29.18;;;;;;;2.48;67.86;101419.27;1433988;91;21491;-82
2022/03/26 02:33:53;;;;;;;64.75;28.55;;;;;;;2.45;68.21;101414.19;1427296;91;21373;-81
2022/03/26 02:36:19;;;;;;;62.78;27.80;;;;;;;2.39;69.38;101423.63;1428230;91;21410;-82
2022/03/26 02:38:45;;;;;;;65.95;29.90;;;;;;;2.31;69.91;101424.42;1416781;91;21324;-82
2022/03/26 02:41:11;;;;;;;63.17;29.92;;;;;;;2.25;69.47;101421.17;1429109;91;21374;-83
2022/03/26 02:43:38;;;;;;;51.33;26.15;;;;;;;2.23;69.02;101415.16;1417684;91;21419;-83
2022/03/26 02:46:04;;;;;;;63.40;28.38;;;;;;;2.23;70.12;101419.08;1419892;91;21433;-83
2022/03/26 02:48:31;;;;;;;56.23;26.50;;;;;;;2.21;69.96;101409.15;1427243;91;21381;-83
2022/03/26 02:50:58;;;;;;;56.28;27.20;;;;;;;2.22;69.64;101411.33;1412132;91;21448;-83
2022/03/26 02:53:23;;;;;;;59.67;27.27;;;;;;;2.21;69.61;101410.45;1408770;92;21336;-83
2022/03/26 02:55:52;;;;;;;56.10;28.53;;;;;;;2.19;69.37;101411.47;1424160;91;22519;-83
2022/03/26 02:58:17;;;;;;;63.92;28.05;;;;;;;2.14;69.85;101420.80;1412417;91;21442;-82
2022/03/26 03:00:43;;;;;;;52.23;26.33;;;;;;;2.09;69.45;101420.63;1420545;91;22334;-83
2022/03/26 03:03:10;;;;;;;53.83;25.10;;;;;;;2.04;69.79;101431.27;1439580;91;21396;-82
2022/03/26 03:05:36;;;;;;;51.35;25.50;;;;;;;2.00;69.66;101429.72;1424974;91;22344;-83
2022/03/26 03:08:03;;;;;;;47.80;23.95;;;;;;;1.94;69.68;101422.16;1416978;91;21332;-83
2022/03/26 03:10:30;;;;;;;53.95;23.65;;;;;;;1.94;69.44;101423.47;1423114;91;22806;-83
2022/03/26 03:12:56;;;;;;;46.48;23.87;;;;;;;1.94;70.16;101424.77;1433601;91;21358;-83
2022/03/26 03:15:22;;;;;;;53.25;23.10;;;;;;;1.95;70.06;101426.45;1432523;91;23231;-83
2022/03/26 03:17:49;;;;;;;47.35;23.92;;;;;;;1.93;70.51;101430.92;1434871;91;21343;-83
2022/03/26 03:20:16;;;;;;;51.02;23.12;;;;;;;1.89;69.68;101424.96;1426228;91;21366;-84
2022/03/26 03:22:43;;;;;;;54.63;25.30;;;;;;;1.86;69.76;101425.09;1428629;91;21550;-84
2022/03/26 03:25:10;;;;;;;42.70;22.77;;;;;;;1.83;69.41;101424.39;1418253;90;23389;-83
2022/03/26 03:27:38;;;;;;;42.85;19.90;;;;;;;1.80;69.49;101427.52;1428097;91;21398;-83
2022/03/26 03:30:06;;;;;;;47.38;23.38;;;;;;;1.72;70.25;101430.06;1410349;91;21381;-82
2022/03/26 03:32:33;;;;;;;44.67;21.82;;;;;;;1.64;70.92;101431.72;1417155;91;22284;-83
2022/03/26 03:34:59;;;;;;;43.02;23.27;;;;;;;1.57;70.48;101436.34;1395668;93;21489;-83
2022/03/26 03:37:25;;;;;;;53.87;23.50;;;;;;;1.50;70.97;101425.78;1415948;91;21943;-83
2022/03/26 03:39:50;;;;;;;47.53;22.70;;;;;;;1.46;71.51;101427.27;1413434;92;21501;-84
2022/03/26 03:42:16;;;;;;;37.97;20.50;;;;;;;1.42;71.78;101427.02;1418343;91;21373;-84
2022/03/26 03:44:42;;;;;;;42.63;21.33;;;;;;;1.38;72.15;101423.67;1423145;91;22460;-84
2022/03/26 03:47:08;;;;;;;35.63;20.12;;;;;;;1.34;72.30;101422.95;1418896;91;23378;-83
2022/03/26 03:49:35;;;;;;;39.53;19.67;;;;;;;1.31;72.34;101425.70;1425130;91;21383;-83
2022/03/26 03:52:04;;;;;;;42.73;20.02;;;;;;;1.28;73.13;101419.77;1422535;91;22296;-82
2022/03/26 03:54:30;;;;;;;38.58;21.33;;;;;;;1.26;72.91;101418.97;1412789;89;22349;-82
2022/03/26 03:56:59;;;;;;;40.30;22.05;;;;;;;1.24;72.28;101412.99;1425971;91;23013;-84
2022/03/26 03:59:24;;;;;;;39.58;20.80;;;;;;;1.24;72.71;101419.05;1410691;91;21498;-84
2022/03/26 04:01:50;;;;;;;45.13;22.30;;;;;;;1.24;72.41;101413.84;1425855;91;21448;-84
2022/03/26 04:04:16;;;;;;;49.57;24.43;;;;;;;1.23;72.99;101417.34;1420961;91;22449;-84
2022/03/26 04:06:43;;;;;;;42.10;23.83;;;;;;;1.23;72.81;101418.64;1416341;91;21375;-82
2022/03/26 04:09:09;;;;;;;51.05;22.85;;;;;;;1.24;72.74;101415.60;1434305;91;21410;-83
2022/03/26 04:11:34;;;;;;;49.93;22.47;;;;;;;1.22;72.48;101411.74;1434101;91;21585;-82
2022/03/26 04:14:00;;;;;;;50.23;23.87;;;;;;;1.23;71.70;101413.42;1426722;91;21759;-82
2022/03/26 04:16:26;;;;;;;47.00;24.18;;;;;;;1.25;71.85;101415.52;1428799;91;23339;-83
2022/03/26 04:18:53;;;;;;;47.15;21.70;;;;;;;1.23;72.04;101413.89;1419305;91;23187;-84
2022/03/26 04:21:19;;;;;;;47.93;24.97;;;;;;;1.20;72.49;101420.08;1431480;91;21417;-85
2022/03/26 04:23:45;;;;;;;41.33;21.55;;;;;;;1.19;72.02;101418.39;1427394;91;21502;-83
2022/03/26 04:26:11;;;;;;;50.50;23.47;;;;;;;1.20;71.78;101417.92;1408630;91;21412;-82
2022/03/26 04:28:37;;;;;;;65.15;30.25;;;;;;;1.19;72.35;101422.30;1420794;91;21531;-83
2022/03/26 04:31:04;;;;;;;50.50;28.00;;;;;;;1.17;72.46;101428.02;1420268;91;22416;-82
2022/03/26 04:33:30;;;;;;;52.75;23.52;;;;;;;1.17;72.45;101428.02;1421667;91;22192;-82
2022/03/26 04:35:57;;;;;;;41.42;22.90;;;;;;;1.18;72.24;101424.95;1412414;91;21422;-82
2022/03/26 04:38:23;;;;;;;53.40;24.57;;;;;;;1.21;71.93;101423.09;1424242;91;21869;-82
2022/03/26 04:40:50;;;;;;;54.15;24.45;;;;;;;1.25;71.84;101428.56;1430928;91;22408;-83
2022/03/26 04:43:18;;;;;;;50.98;23.10;;;;;;;1.31;71.65;101424.85;1431883;91;21308;-82
2022/03/26 04:45:45;;;;;;;51.02;23.22;;;;;;;1.37;71.64;101426.36;1408952;91;22367;-82
2022/03/26 04:48:10;;;;;;;48.35;23.80;;;;;;;1.40;72.26;101423.62;1393464;91;21324;-82
2022/03/26 04:50:36;;;;;;;65.07;26.77;;;;;;;1.45;72.77;101424.28;1385709;91;21590;-82
2022/03/26 04:53:03;;;;;;;68.30;30.43;;;;;;;1.47;72.56;101424.61;1407181;91;21440;-82
2022/03/26 04:55:30;;;;;;;60.45;27.50;;;;;;;1.54;73.07;101429.11;1426296;91;21499;-82
2022/03/26 04:57:56;;;;;;;58.02;29.23;;;;;;;1.60;73.25;101430.14;1416310;91;21473;-83
2022/03/26 05:00:22;;;;;;;52.37;27.20;;;;;;;1.69;73.58;101429.74;1393219;91;22472;-83
2022/03/26 05:02:49;;;;;;;54.42;27.50;;;;;;;1.78;73.04;101431.98;1392227;91;21414;-84
2022/03/26 05:05:15;;;;;;;49.63;25.92;;;;;;;1.88;73.22;101430.27;1396858;91;21369;-85
2022/03/26 05:07:48;;;;;;;46.25;23.95;;;;;;;1.97;73.40;101433.77;1397742;91;21376;-83
2022/03/26 05:10:23;;;;;;;49.93;25.12;;;;;;;2.07;73.31;101429.81;1389085;91;22264;-83
2022/03/26 05:12:51;;;;;;;38.78;21.80;;;;;;;2.17;72.71;101431.11;1397119;91;23306;-83
2022/03/26 05:15:21;;;;;;;49.90;23.12;;;;;;;2.29;72.54;101431.02;1420373;91;21461;-82
2022/03/26 05:17:48;;;;;;;37.40;20.37;;;;;;;2.38;72.32;101431.05;1425296;91;21462;-84
2022/03/26 05:20:14;;;;;;;57.33;19.30;;;;;;;2.46;71.76;101438.08;1435420;91;21470;-84
2022/03/26 05:22:44;;;;;;;44.33;20.12;;;;;;;2.55;71.55;101432.89;1423144;91;21462;-85
2022/03/26 05:25:12;;;;;;;34.20;16.23;;;;;;;2.64;71.65;101426.76;1402645;91;21428;-84
2022/03/26 05:27:38;;;;;;;44.25;20.05;;;;;;;2.76;71.29;101432.33;1392359;91;22307;-83
2022/03/26 05:30:06;;;;;;;40.47;18.23;;;;;;;2.86;71.05;101433.59;1393148;92;22303;-83
2022/03/26 05:32:32;;;;;;;44.90;18.53;;;;;;;2.96;70.77;101430.91;1404616;91;21536;-83
2022/03/26 05:34:58;;;;;;;38.90;20.50;;;;;;;3.05;70.42;101431.80;1409418;91;21569;-82
2022/03/26 05:37:25;;;;;;;38.57;18.57;;;;;;;3.14;70.00;101426.58;1409384;91;22546;-84
2022/03/26 05:39:52;;;;;;;35.90;18.93;;;;;;;3.25;69.79;101437.80;1418958;91;21422;-83
2022/03/26 05:42:18;;;;;;;39.97;19.20;;;;;;;3.31;69.46;101436.17;1413383;91;21657;-82
2022/03/26 05:44:44;;;;;;;68.87;21.30;;;;;;;3.35;69.40;101435.12;1413491;91;21611;-82
2022/03/26 05:47:10;;;;;;;38.80;19.63;;;;;;;3.41;69.24;101434.81;1413698;91;24017;-82
2022/03/26 05:49:36;;;;;;;31.77;17.93;;;;;;;3.46;68.87;101444.59;1410893;91;22513;-82
2022/03/26 05:52:04;;;;;;;38.10;18.20;;;;;;;3.51;68.78;101445.22;1403663;91;21581;-82
2022/03/26 05:54:30;;;;;;;31.30;18.33;;;;;;;3.53;68.80;101440.73;1395423;91;21655;-81
2022/03/26 05:56:56;;;;;;;33.13;18.03;;;;;;;3.56;68.53;101453.66;1390177;91;21673;-81
2022/03/26 05:59:26;;;;;;;38.10;20.73;;;;;;;3.57;68.55;101452.75;1396189;91;21560;-81
2022/03/26 06:01:54;;;;;;;39.93;17.30;;;;;;;3.59;68.14;101457.42;1389113;91;21430;-82
2022/03/26 06:04:22;;;;;;;36.53;19.07;;;;;;;3.64;68.48;101455.06;1408838;91;21648;-83
2022/03/26 06:06:48;;;;;;;47.13;20.10;;;;;;;3.74;68.07;101458.88;1424537;91;21621;-83
2022/03/26 06:09:14;;;;;;;47.90;22.00;;;;;;;3.85;67.88;101455.25;1408019;91;21620;-83
2022/03/26 06:11:39;;;;;;;36.67;18.60;;;;;;;3.99;67.73;101447.99;1408652;91;21271;-82
2022/03/26 06:14:06;;;;;;;41.57;21.63;;;;;;;4.14;67.64;101448.48;1424085;91;21622;-82
2022/03/26 06:16:34;;;;;;;46.27;20.37;;;;;;;4.33;67.94;101448.84;1398298;91;21301;-83
2022/03/26 06:19:01;;;;;;;55.23;21.83;;;;;;;4.53;68.20;101450.75;1421876;91;21855;-83
2022/03/26 06:21:29;;;;;;;45.10;20.60;;;;;;;4.74;67.97;101454.43;1427039;91;21671;-81
2022/03/26 06:24:00;;;;;;;45.17;21.23;;;;;;;4.97;67.57;101451.83;1421453;91;21686;-82
2022/03/26 06:26:26;;;;;;;;;;;;;;;5.20;67.03;101451.84;1412603;91;21844;-83
2022/03/26 06:28:53;;;;;;;46.57;22.23;;;;;;;5.42;66.78;101452.30;1399684;91;20840;-82
2022/03/26 06:31:19;;;;;;;42.40;21.87;;;;;;;5.77;65.45;101452.00;1432564;91;21426;-81
2022/03/26 06:33:45;;;;;;;39.87;21.00;;;;;;;5.77;65.45;101452.00;1402557;93;21749;-82
2022/03/26 06:36:13;;;;;;;41.47;21.33;;;;;;;6.13;65.19;101448.57;1401572;92;21809;-82
2022/03/26 06:38:41;;;;;;;46.87;22.63;;;;;;;6.13;65.19;101448.57;1401410;93;21839;-82
2022/03/26 06:41:11;;;;;;;40.53;23.27;;;;;;;6.29;64.26;101454.11;1398560;92;21851;-82
2022/03/26 06:43:40;;;;;;;38.55;21.07;;;;;;;6.47;64.55;101453.91;1399994;93;22784;-82
2022/03/26 06:46:07;;;;;;;40.27;21.23;;;;;;;6.62;63.86;101452.96;1385268;93;22334;-82
2022/03/26 06:48:34;;;;;;;58.43;22.97;;;;;;;6.81;63.72;101452.62;1388608;93;23035;-82
2022/03/26 06:51:01;;;;;;;38.20;23.60;;;;;;;7.00;62.70;101449.66;1395869;92;22108;-82
2022/03/26 06:53:30;;;;;;;49.77;25.50;;;;;;;7.15;62.24;101457.86;1379836;93;22996;-82
2022/03/26 06:55:57;;;;;;;49.80;25.27;;;;;;;7.34;62.43;101452.72;1373550;93;22135;-83
2022/03/26 06:58:25;;;;;;;53.13;24.07;;;;;;;7.55;62.32;101457.86;1376827;93;21335;-82
2022/03/26 07:00:52;;;;;;;40.03;23.33;;;;;;;7.73;62.31;101450.98;1370816;92;21496;-80
2022/03/26 07:03:18;;;;;;;54.63;26.37;;;;;;;7.90;61.58;101454.63;1398374;93;21956;-80
2022/03/26 07:05:44;;;;;;;57.60;26.37;;;;;;;8.11;61.35;101456.24;1378986;93;21394;-79
2022/03/26 07:08:11;;;;;;;55.43;27.77;;;;;;;8.31;61.06;101456.17;1372895;93;21605;-79
2022/03/26 07:10:41;;;;;;;58.07;28.33;;;;;;;8.51;60.36;101451.67;1399586;92;21559;-79
2022/03/26 07:13:06;;;;;;;53.90;28.83;;;;;;;8.71;59.95;101447.61;1371270;93;21652;-79
2022/03/26 07:15:32;;;;;;;60.73;28.17;;;;;;;8.92;59.56;101450.52;1373081;93;21483;-76
2022/03/26 07:17:59;;;;;;;57.30;26.50;;;;;;;9.12;58.96;101449.51;1401434;93;22290;-76
2022/03/26 07:20:25;;;;;;;47.37;24.80;;;;;;;9.32;58.29;101450.22;1386388;93;21372;-76
2022/03/26 07:22:51;;;;;;;62.03;24.83;;;;;;;9.52;56.72;101450.50;1371402;93;22326;-77
2022/03/26 07:25:18;;;;;;;60.43;26.37;;;;;;;9.71;57.19;101445.51;1383219;93;21484;-78
2022/03/26 07:27:44;;;;;;;57.80;25.53;;;;;;;9.90;56.37;101451.08;1395286;93;21372;-81
2022/03/26 07:30:11;;;;;;;46.50;26.60;;;;;;;10.09;56.35;101452.28;1375033;93;21387;-78
2022/03/26 07:32:37;;;;;;;48.27;24.70;;;;;;;10.29;55.72;101456.89;1392684;91;21545;-78
2022/03/26 07:35:05;;;;;;;56.33;27.73;;;;;;;10.51;55.00;101457.85;1385985;93;22336;-78
2022/03/26 07:37:31;;;;;;;107.23;26.87;;;;;;;10.76;55.30;101455.38;1387441;93;21359;-78
2022/03/26 07:39:57;;;;;;;39.07;22.23;;;;;;;10.99;54.05;101449.55;1396470;93;21469;-78
2022/03/26 07:42:23;;;;;;;45.87;21.20;;;;;;;11.26;53.38;101447.28;1388438;93;21344;-78
2022/03/26 07:44:49;;;;;;;39.73;21.43;;;;;;;11.49;53.13;101455.14;1398910;93;21417;-78
2022/03/26 07:47:15;;;;;;;39.53;17.47;;;;;;;11.70;52.30;101453.31;1390850;93;22297;-78
2022/03/26 07:49:41;;;;;;;32.43;18.87;;;;;;;11.96;52.55;101447.64;1396597;92;21321;-78
2022/03/26 07:52:08;;;;;;;32.67;17.43;;;;;;;12.17;50.89;101448.45;1399008;93;21462;-78
2022/03/26 07:54:34;;;;;;;39.87;17.70;;;;;;;12.47;49.91;101441.43;1395043;92;21432;-78
2022/03/26 07:57:00;;;;;;;35.07;18.10;;;;;;;12.71;49.33;101441.06;1400068;93;21316;-78
2022/03/26 07:59:26;;;;;;;35.73;17.27;;;;;;;12.90;47.97;101437.61;1404149;93;21358;-78
2022/03/26 08:01:52;;;;;;;22.70;12.90;;;;;;;13.05;47.42;101438.87;1400558;92;21417;-78
2022/03/26 08:04:18;;;;;;;73.43;16.20;;;;;;;13.18;46.41;101437.28;1404051;92;21373;-79
2022/03/26 08:06:44;;;;;;;28.77;11.80;;;;;;;13.33;43.14;101438.22;1393486;93;21395;-79
2022/03/26 08:09:10;;;;;;;33.43;14.53;;;;;;;13.51;43.15;101432.02;1399488;93;21506;-78
2022/03/26 08:11:35;;;;;;;24.13;12.53;;;;;;;13.73;44.89;101430.04;1412401;92;21307;-79
2022/03/26 08:14:01;;;;;;;21.40;11.50;;;;;;;13.94;43.85;101429.33;1386848;93;21385;-80
2022/03/26 08:16:27;;;;;;;20.67;10.70;;;;;;;14.06;43.27;101430.48;1388881;93;21348;-79
2022/03/26 08:18:53;;;;;;;22.33;10.43;;;;;;;14.17;42.28;101430.31;1397965;93;21371;-79
2022/03/26 08:21:20;;;;;;;27.87;10.77;;;;;;;14.31;40.88;101433.81;1404877;92;21493;-80
2022/03/26 08:23:49;;;;;;;23.37;10.77;;;;;;;14.48;41.13;101430.03;1398376;91;22304;-79
2022/03/26 08:26:26;;;;;;;15.00;8.90;;;;;;;14.50;39.81;101428.90;1389987;91;22330;-79
2022/03/26 08:28:54;;;;;;;20.63;11.07;;;;;;;14.45;36.30;101430.66;1397645;93;21410;-80
2022/03/26 08:31:23;;;;;;;23.57;10.70;;;;;;;14.64;39.06;101444.41;1392826;93;22495;-80
2022/03/26 08:33:49;;;;;;;22.60;8.80;;;;;;;14.80;37.32;101434.91;1414134;90;21390;-80
2022/03/26 08:36:17;;;;;;;15.90;9.77;;;;;;;14.89;36.95;101436.66;1428544;90;21458;-79
2022/03/26 08:38:45;;;;;;;17.80;10.13;;;;;;;15.05;36.92;101433.33;1400409;91;21473;-80
2022/03/26 08:41:13;;;;;;;21.00;10.07;;;;;;;15.12;36.75;101436.55;1432247;90;21422;-79
2022/03/26 08:43:39;;;;;;;19.53;8.07;;;;;;;15.25;37.21;101436.69;1446941;91;21281;-79
2022/03/26 08:46:05;;;;;;;15.37;8.57;;;;;;;15.39;35.23;101437.94;1353643;91;21323;-79
2022/03/26 08:48:31;;;;;;;12.43;7.43;;;;;;;15.42;35.36;101436.30;1347138;91;21287;-79
2022/03/26 08:50:57;;;;;;;23.43;9.10;;;;;;;15.56;33.55;101435.27;1398706;91;21308;-79
2022/03/26 08:53:23;;;;;;;14.30;7.80;;;;;;;15.70;34.43;101428.53;1334181;91;21274;-78
2022/03/26 08:55:51;;;;;;;22.53;9.17;;;;;;;15.75;33.97;101428.91;1411617;92;21324;-79
2022/03/26 08:58:18;;;;;;;19.43;10.10;;;;;;;15.86;34.14;101417.64;1326409;92;22116;-79
2022/03/26 09:00:47;;;;;;;12.90;7.63;;;;;;;15.88;33.56;101423.16;1444905;90;21405;-80
2022/03/26 09:03:17;;;;;;;13.40;8.10;;;;;;;15.98;34.71;101419.03;1355716;91;21353;-79
2022/03/26 09:05:44;;;;;;;15.88;7.75;;;;;;;16.15;34.30;101414.11;1473715;91;21388;-79
2022/03/26 09:08:10;;;;;;;18.17;9.57;;;;;;;16.23;33.52;101417.33;1439897;91;21315;-79
2022/03/26 09:10:36;;;;;;;13.83;8.10;;;;;;;16.27;32.27;101411.16;1333937;91;21266;-79
2022/03/26 09:13:02;;;;;;;78.40;11.53;;;;;;;16.38;33.30;101403.68;1474017;90;21278;-79
2022/03/26 09:15:28;;;;;;;18.03;6.63;;;;;;;16.52;33.59;101403.56;1357099;92;22262;-80
2022/03/26 09:17:54;;;;;;;17.13;8.07;;;;;;;16.53;31.67;101398.55;1374937;91;21322;-80
2022/03/26 09:20:21;;;;;;;13.87;7.60;;;;;;;16.62;32.87;101404.24;1338928;91;21337;-80
2022/03/26 09:22:47;;;;;;;13.53;7.63;;;;;;;16.76;32.49;101404.14;1343498;93;21270;-80
2022/03/26 09:25:16;;;;;;;15.97;7.73;;;;;;;16.80;31.33;101396.63;1458409;91;21397;-80
2022/03/26 09:27:41;;;;;;;23.80;12.17;;;;;;;16.92;32.46;101395.33;1488648;91;21315;-80
2022/03/26 09:30:08;;;;;;;13.63;7.53;;;;;;;16.97;31.87;101395.64;1505081;91;22240;-80
2022/03/26 09:32:34;;;;;;;16.80;8.93;;;;;;;17.00;31.55;101381.94;1386993;91;21286;-78
2022/03/26 09:35:00;;;;;;;68.47;10.33;;;;;;;17.10;31.15;101383.13;1324390;94;22178;-80
2022/03/26 09:37:26;;;;;;;18.73;8.10;;;;;;;17.02;29.98;101377.27;1413011;92;22040;-79
2022/03/26 09:39:52;;;;;;;18.40;8.63;;;;;;;17.20;31.19;101386.95;1431510;93;21363;-80
2022/03/26 09:42:18;;;;;;;23.53;8.87;;;;;;;17.27;30.76;101374.60;1434291;93;21393;-79
2022/03/26 09:44:44;;;;;;;25.60;8.23;;;;;;;17.35;30.98;101374.59;1340133;93;21284;-80
2022/03/26 09:47:11;;;;;;;16.07;8.33;;;;;;;17.43;29.67;101369.72;1356082;93;22754;-80
2022/03/26 09:49:38;;;;;;;18.03;8.03;;;;;;;17.48;30.69;101357.50;1380757;94;21446;-80
2022/03/26 09:52:06;;;;;;;13.23;8.27;;;;;;;17.65;30.81;101356.13;1314896;95;21352;-80
2022/03/26 09:54:33;;;;;;;14.93;8.53;;;;;;;17.71;29.96;101360.80;1433099;93;21307;-80
2022/03/26 09:56:59;;;;;;;17.73;7.30;;;;;;;17.80;30.39;101357.95;1329454;93;22279;-80
2022/03/26 09:59:31;;;;;;;13.77;6.87;;;;;;;17.85;29.00;101344.05;1344554;94;21312;-80
2022/03/26 10:01:58;;;;;;;14.60;7.13;;;;;;;17.78;28.68;101345.73;1370345;93;22216;-80
2022/03/26 10:04:40;;;;;;;15.03;7.40;;;;;;;17.85;29.71;101340.03;1326895;92;21330;-80
2022/03/26 10:07:07;;;;;;;17.23;7.00;;;;;;;17.95;29.00;101329.11;1460221;93;21396;-80
2022/03/26 10:09:40;;;;;;;25.23;6.53;;;;;;;17.93;29.37;101337.33;1454167;93;21321;-81
2022/03/26 10:12:11;;;;;;;19.63;5.60;;;;;;;17.99;28.65;101332.61;1324777;93;21350;-80
2022/03/26 10:14:47;;;;;;;11.03;5.33;;;;;;;18.02;28.50;101329.58;1457048;95;21408;-80
2022/03/26 10:17:23;;;;;;;12.77;5.57;;;;;;;18.13;28.21;101319.50;1466921;93;22154;-77
2022/03/26 10:19:58;;;;;;;10.03;5.77;;;;;;;18.22;28.11;101317.11;1431931;94;21437;-78
2022/03/26 10:22:40;;;;;;;53.00;6.67;;;;;;;18.29;27.83;101319.91;1343366;94;21285;-78
2022/03/26 10:25:20;;;;;;;12.03;5.17;;;;;;;18.19;27.29;101304.06;1455458;94;21315;-77
2022/03/26 10:27:49;;;;;;;11.43;6.97;;;;;;;18.21;27.74;101310.05;1447123;95;21342;-77
2022/03/26 10:32:38;;;;;;;14.13;5.73;;;;;;;18.32;28.07;101309.66;1378761;95;21322;-77
2022/03/26 10:32:50;;;;;;;10.57;5.07;;;;;;;18.38;27.97;101302.25;1378217;95;21433;-78
2022/03/26 10:35:27;;;;;;;21.85;5.62;;;;;;;18.45;26.97;101297.03;1378908;92;21721;-78
2022/03/26 10:37:58;;;;;;;11.17;5.60;;;;;;;18.55;27.21;101293.59;1379528;95;22312;-78
2022/03/26 10:40:44;;;;;;;14.67;5.33;;;;;;;18.62;27.43;101295.07;1365830;95;21365;-78
2022/03/26 10:43:14;;;;;;;11.20;5.37;;;;;;;18.74;27.38;101290.97;1460714;89;21660;-78
2022/03/26 10:45:52;;;;;;;11.80;5.57;;;;;;;18.79;26.89;101279.69;1430979;91;21405;-82
2022/03/26 10:48:28;;;;;;;7.77;4.97;;;;;;;18.71;26.47;101275.22;1427215;91;21405;-83
2022/03/26 10:50:57;;;;;;;20.87;5.73;;;;;;;18.75;26.40;101273.86;1376572;89;21210;-81
2022/03/26 10:53:46;;;;;;;13.67;5.10;;;;;;;18.79;26.55;101263.59;1505722;91;22344;-81
2022/03/26 10:56:15;;;;;;;12.77;5.23;;;;;;;18.97;27.09;101261.95;1449138;91;21421;-82
2022/03/26 10:58:43;;;;;;;15.77;5.20;;;;;;;19.26;25.77;101268.69;1377368;89;21298;-81
2022/03/26 11:01:10;;;;;;;11.37;4.87;;;;;;;19.24;26.30;101261.31;1401972;91;21346;-81
2022/03/26 11:03:36;;;;;;;23.07;6.17;;;;;;;19.23;26.12;101254.30;1362005;91;21317;-81
2022/03/26 11:06:08;;;;;;;43.37;7.00;;;;;;;19.21;25.45;101256.31;1379800;89;21256;-81
2022/03/26 11:08:36;;;;;;;14.63;5.83;;;;;;;19.19;26.05;101258.86;1518610;89;21366;-81
2022/03/26 11:11:09;;;;;;;21.00;5.03;;;;;;;19.11;26.07;101249.89;1357363;91;21295;-80
2022/03/26 11:13:45;;;;;;;11.30;6.00;;;;;;;19.19;25.91;101251.66;1405304;91;21317;-81
2022/03/26 11:16:36;;;;;;;12.57;5.47;;;;;;;19.15;25.41;101251.17;1389212;89;21484;-81
2022/03/26 11:19:30;;;;;;;17.20;5.63;;;;;;;19.31;26.18;101238.11;1530123;89;21329;-81